Time;durP1;ratioP1;P1;durP2;ratioP2;P2;SDS_P1;SDS_P2;PMS_P1;PMS_P2;Temp;Humidity;BMP_temperature;BMP_pressure;BME280_temperature;BME280_humidity;BME280_pressure;Samples;Min_cycle;Max_cycle;Signal;HPM_P1;HPM_P2
2022/03/28 00:01:10;;;;;;;54.22;34.67;;;;;;;6.11;100.00;102813.94;4943429;28;20080;-74
2022/03/28 00:03:35;;;;;;;50.58;31.20;;;;;;;6.14;100.00;102818.16;4909650;28;20046;-74
2022/03/28 00:06:01;;;;;;;54.10;30.92;;;;;;;6.09;100.00;102809.69;4926623;28;20500;-75
2022/03/28 00:08:28;;;;;;;58.80;31.83;;;;;;;6.12;100.00;102812.09;4926598;28;20042;-75
2022/03/28 00:10:54;;;;;;;50.60;32.17;;;;;;;6.03;100.00;102812.91;4942933;28;20053;-75
2022/03/28 00:13:19;;;;;;;57.45;34.10;;;;;;;6.12;100.00;102814.78;4918875;28;20106;-74
2022/03/28 00:15:45;;;;;;;55.42;33.63;;;;;;;6.10;100.00;102816.72;4943957;28;20081;-74
2022/03/28 00:18:10;;;;;;;49.80;29.73;;;;;;;5.98;100.00;102808.81;4944573;28;20138;-74
2022/03/28 00:20:36;;;;;;;44.42;27.90;;;;;;;5.98;100.00;102811.47;4908212;28;20227;-73
2022/03/28 00:23:03;;;;;;;44.63;29.20;;;;;;;6.06;100.00;102799.25;4944163;28;20034;-75
2022/03/28 00:25:29;;;;;;;54.95;32.13;;;;;;;6.07;100.00;102792.91;4926356;28;20049;-75
2022/03/28 00:27:54;;;;;;;63.92;35.83;;;;;;;6.03;100.00;102791.50;4944243;28;20847;-75
2022/03/28 00:30:20;;;;;;;58.53;34.40;;;;;;;6.17;100.00;102786.63;4909253;28;20533;-74
2022/03/28 00:32:45;;;;;;;52.13;31.23;;;;;;;6.13;100.00;102779.00;4940945;28;20030;-74
2022/03/28 00:35:11;;;;;;;48.08;32.28;;;;;;;6.08;100.00;102779.44;4931905;28;20062;-74
2022/03/28 00:37:38;;;;;;;53.95;32.42;;;;;;;6.04;100.00;102775.34;4931037;28;20624;-74
2022/03/28 00:40:05;;;;;;;59.28;36.20;;;;;;;6.18;100.00;102776.78;4925563;28;20065;-75
2022/03/28 00:42:31;;;;;;;57.03;35.63;;;;;;;6.24;100.00;102770.03;4912360;28;20045;-75
2022/03/28 00:44:56;;;;;;;54.85;31.90;;;;;;;6.10;100.00;102768.56;4941488;28;20037;-74
2022/03/28 00:47:21;;;;;;;55.35;32.53;;;;;;;6.05;100.00;102770.81;4925791;28;20770;-74
2022/03/28 00:49:47;;;;;;;60.92;35.55;;;;;;;6.00;100.00;102773.03;4943094;28;20030;-74
2022/03/28 00:52:12;;;;;;;61.40;35.95;;;;;;;5.96;100.00;102767.97;4929390;28;20066;-75
2022/03/28 00:54:38;;;;;;;56.47;35.40;;;;;;;5.96;100.00;102761.75;4931847;28;23630;-74
2022/03/28 00:57:04;;;;;;;55.42;34.65;;;;;;;5.90;100.00;102757.78;4921945;28;20073;-74
2022/03/28 00:59:32;;;;;;;52.65;32.75;;;;;;;5.89;100.00;102756.06;4920259;28;20050;-74
2022/03/28 01:01:59;;;;;;;48.85;32.20;;;;;;;5.74;100.00;102758.28;4923535;28;20110;-74
2022/03/28 01:04:24;;;;;;;46.03;29.58;;;;;;;5.78;100.00;102753.50;4924096;28;20788;-74
2022/03/28 01:06:49;;;;;;;46.30;31.20;;;;;;;5.74;100.00;102757.44;4923254;28;20034;-74
2022/03/28 01:09:15;;;;;;;48.30;28.48;;;;;;;5.76;100.00;102750.13;4891883;28;20102;-75
2022/03/28 01:11:42;;;;;;;44.67;29.98;;;;;;;5.75;100.00;102753.78;4943055;28;20030;-74
2022/03/28 01:14:07;;;;;;;38.78;27.10;;;;;;;5.75;100.00;102746.59;4907924;28;20504;-74
2022/03/28 01:18:05;;;;;;;40.95;27.38;;;;;;;5.70;100.00;102745.31;4944006;28;20225;-74
2022/03/28 01:19:23;;;;;;;44.85;28.42;;;;;;;5.80;100.00;102735.50;4919658;28;20037;-74
2022/03/28 01:21:50;;;;;;;44.80;28.45;;;;;;;5.72;100.00;102728.16;4910778;28;20056;-74
2022/03/28 01:24:15;;;;;;;51.17;31.23;;;;;;;5.83;100.00;102735.25;4925769;28;20046;-74
2022/03/28 01:26:41;;;;;;;47.70;31.08;;;;;;;5.79;100.00;102728.47;4905476;28;20082;-74
2022/03/28 01:29:06;;;;;;;49.78;32.17;;;;;;;5.70;100.00;102721.25;4908302;28;20054;-74
2022/03/28 01:31:32;;;;;;;57.55;35.05;;;;;;;5.67;100.00;102711.66;4907380;28;20053;-73
2022/03/28 01:33:57;;;;;;;71.90;38.55;;;;;;;5.68;100.00;102718.69;4924100;28;20108;-73
2022/03/28 01:36:29;;;;;;;63.92;37.28;;;;;;;5.78;100.00;102716.06;4907213;28;20050;-73
2022/03/28 01:38:54;;;;;;;55.67;35.50;;;;;;;5.75;100.00;102721.69;4921395;28;20076;-73
2022/03/28 01:41:20;;;;;;;57.42;36.08;;;;;;;5.76;100.00;102710.03;4918337;28;20030;-73
2022/03/28 01:43:45;;;;;;;57.10;37.75;;;;;;;5.77;100.00;102708.19;4912705;28;20081;-73
2022/03/28 01:46:11;;;;;;;62.72;39.15;;;;;;;5.82;100.00;102709.47;4925293;28;20465;-73
2022/03/28 01:48:36;;;;;;;65.00;40.25;;;;;;;5.72;100.00;102705.91;4909695;28;20077;-74
2022/03/28 01:51:02;;;;;;;63.33;40.28;;;;;;;5.79;100.00;102699.06;4924715;28;20037;-74
2022/03/28 01:53:27;;;;;;;60.00;39.22;;;;;;;5.77;100.00;102713.53;4907286;28;20609;-74
2022/03/28 01:55:52;;;;;;;62.17;38.85;;;;;;;5.70;100.00;102707.88;4922855;28;20030;-73
2022/03/28 01:58:18;;;;;;;50.50;31.60;;;;;;;5.71;100.00;102712.25;4910543;28;20053;-73
2022/03/28 02:00:43;;;;;;;41.47;27.35;;;;;;;5.72;100.00;102701.44;4922077;28;20041;-73
2022/03/28 02:03:09;;;;;;;37.08;25.83;;;;;;;5.67;100.00;102702.81;4922719;28;20145;-74
2022/03/28 02:05:34;;;;;;;30.45;20.30;;;;;;;5.58;100.00;102703.59;4908690;28;20166;-73
2022/03/28 02:08:00;;;;;;;32.60;20.73;;;;;;;5.57;100.00;102696.56;4923341;28;20057;-73
2022/03/28 02:10:25;;;;;;;29.83;20.02;;;;;;;5.61;100.00;102703.34;4908632;28;20050;-73
2022/03/28 02:12:51;;;;;;;30.00;21.38;;;;;;;5.59;100.00;102697.28;4926109;28;20034;-73
2022/03/28 02:15:18;;;;;;;33.08;21.55;;;;;;;5.57;100.00;102693.91;4907376;28;20069;-73
2022/03/28 02:17:44;;;;;;;33.92;21.23;;;;;;;5.52;100.00;102698.81;4922459;28;20030;-73
2022/03/28 02:20:10;;;;;;;37.13;22.48;;;;;;;5.46;100.00;102698.34;4906282;28;21392;-74
2022/03/28 02:22:36;;;;;;;37.03;22.70;;;;;;;5.39;100.00;102694.53;4915822;28;20054;-74
2022/03/28 02:25:03;;;;;;;38.47;23.65;;;;;;;5.45;100.00;102691.31;4930586;28;20447;-73
2022/03/28 02:27:29;;;;;;;42.42;24.88;;;;;;;5.36;100.00;102677.91;4908150;28;20059;-74
2022/03/28 02:29:54;;;;;;;37.63;24.88;;;;;;;5.37;100.00;102675.13;4926032;28;20058;-74
2022/03/28 02:32:19;;;;;;;37.33;23.92;;;;;;;5.35;100.00;102679.75;4908209;28;20178;-74
2022/03/28 02:34:45;;;;;;;47.85;26.88;;;;;;;5.37;100.00;102677.78;4922586;28;20092;-74
2022/03/28 02:37:10;;;;;;;48.30;28.13;;;;;;;5.33;100.00;102665.66;4910239;28;20059;-74
2022/03/28 02:39:36;;;;;;;48.78;28.33;;;;;;;5.37;100.00;102659.09;4926261;28;20038;-74
2022/03/28 02:42:02;;;;;;;43.55;25.95;;;;;;;5.45;100.00;102661.91;4925242;28;20042;-74
2022/03/28 02:44:28;;;;;;;48.95;27.52;;;;;;;5.48;100.00;102656.31;4914039;28;20045;-74
2022/03/28 02:46:53;;;;;;;47.00;27.35;;;;;;;5.40;100.00;102648.09;4926587;28;20577;-74
2022/03/28 02:49:19;;;;;;;50.35;28.40;;;;;;;5.49;100.00;102651.81;4909614;28;20050;-73
2022/03/28 02:51:45;;;;;;;43.90;25.90;;;;;;;5.53;100.00;102649.72;4924522;28;20026;-73
2022/03/28 02:54:10;;;;;;;40.83;24.10;;;;;;;5.52;100.00;102646.19;4913658;28;20050;-73
2022/03/28 02:56:36;;;;;;;42.65;23.58;;;;;;;5.39;100.00;102642.91;4926086;28;20057;-73
2022/03/28 02:59:01;;;;;;;40.78;23.98;;;;;;;5.34;100.00;102642.47;4919551;28;20569;-73
2022/03/28 03:01:27;;;;;;;29.50;19.00;;;;;;;5.31;100.00;102651.59;4916393;28;20058;-74
2022/03/28 03:03:52;;;;;;;34.42;21.27;;;;;;;5.33;100.00;102641.59;4925257;28;20030;-73
2022/03/28 03:06:19;;;;;;;33.55;21.42;;;;;;;5.38;100.00;102639.38;4909629;28;20057;-73
2022/03/28 03:08:44;;;;;;;38.50;20.95;;;;;;;5.32;100.00;102634.56;4927110;28;20058;-73
2022/03/28 03:11:10;;;;;;;39.60;23.23;;;;;;;5.37;100.00;102632.34;4912459;28;20055;-73
2022/03/28 03:13:36;;;;;;;46.28;25.38;;;;;;;5.39;100.00;102622.34;4926430;28;20184;-73
2022/03/28 03:16:02;;;;;;;42.28;24.40;;;;;;;5.38;100.00;102628.69;4924491;28;21014;-73
2022/03/28 03:18:27;;;;;;;30.77;17.25;;;;;;;5.43;100.00;102630.97;4909793;28;20080;-73
2022/03/28 03:20:53;;;;;;;32.45;16.58;;;;;;;5.35;100.00;102626.28;4924790;28;20027;-73
2022/03/28 03:23:18;;;;;;;31.15;16.48;;;;;;;5.34;100.00;102631.78;4910166;28;20758;-73
2022/03/28 03:25:44;;;;;;;25.83;16.30;;;;;;;5.35;100.00;102623.63;4923759;28;20138;-73
2022/03/28 03:28:09;;;;;;;32.10;14.73;;;;;;;5.28;100.00;102626.97;4922474;28;20054;-73
2022/03/28 03:30:35;;;;;;;26.88;13.40;;;;;;;5.32;100.00;102629.22;4922670;28;20026;-73
2022/03/28 03:33:00;;;;;;;20.35;12.15;;;;;;;5.24;100.00;102627.22;4924295;28;20112;-73
2022/03/28 03:35:26;;;;;;;23.90;11.18;;;;;;;5.15;100.00;102627.19;4925861;28;20056;-73
2022/03/28 03:37:51;;;;;;;22.15;11.55;;;;;;;5.06;100.00;102617.31;4919913;28;20464;-73
2022/03/28 03:40:17;;;;;;;16.50;8.40;;;;;;;5.03;100.00;102623.75;4914461;28;20054;-74
2022/03/28 03:42:42;;;;;;;12.48;6.35;;;;;;;4.95;100.00;102619.09;4923340;28;20738;-74
2022/03/28 03:45:09;;;;;;;11.55;5.75;;;;;;;4.90;100.00;102615.94;4908556;28;20081;-73
2022/03/28 03:47:35;;;;;;;12.30;6.55;;;;;;;4.94;100.00;102619.19;4929597;28;20034;-74
2022/03/28 03:50:01;;;;;;;17.90;7.80;;;;;;;4.84;100.00;102619.16;4913657;28;21445;-74
2022/03/28 03:52:26;;;;;;;17.23;7.88;;;;;;;4.88;100.00;102611.72;4925405;28;20065;-74
2022/03/28 03:54:52;;;;;;;16.17;7.57;;;;;;;4.80;100.00;102612.38;4910887;28;20054;-74
2022/03/28 03:57:17;;;;;;;14.35;7.13;;;;;;;4.86;100.00;102611.84;4922969;28;20043;-74
2022/03/28 03:59:43;;;;;;;16.92;8.07;;;;;;;4.79;100.00;102605.34;4924050;28;20117;-74
2022/03/28 04:02:08;;;;;;;17.90;8.70;;;;;;;4.89;100.00;102605.41;4908984;28;20587;-74
2022/03/28 04:04:34;;;;;;;17.45;8.13;;;;;;;4.81;100.00;102598.06;4925606;28;20064;-74
2022/03/28 04:06:59;;;;;;;17.55;8.50;;;;;;;4.76;100.00;102590.44;4905934;28;20502;-74
2022/03/28 04:09:25;;;;;;;18.77;7.55;;;;;;;4.81;100.00;102592.72;4923100;28;20125;-74
2022/03/28 04:11:50;;;;;;;16.95;8.40;;;;;;;4.90;100.00;102596.41;4907236;28;20093;-74
2022/03/28 04:14:16;;;;;;;14.82;7.38;;;;;;;4.96;100.00;102594.06;4922532;28;20499;-75
2022/03/28 04:16:42;;;;;;;14.43;7.10;;;;;;;4.94;100.00;102593.34;4918824;28;20043;-74
2022/03/28 04:19:08;;;;;;;14.05;6.30;;;;;;;4.91;100.00;102587.41;4933778;28;20116;-75
2022/03/28 04:21:33;;;;;;;19.58;6.97;;;;;;;4.88;100.00;102585.88;4941469;28;20034;-74
2022/03/28 04:23:59;;;;;;;12.55;5.32;;;;;;;4.90;100.00;102594.59;4927359;28;20279;-75
2022/03/28 04:26:24;;;;;;;14.57;6.75;;;;;;;4.89;100.00;102595.56;4933211;28;22416;-75
2022/03/28 04:28:50;;;;;;;11.05;4.50;;;;;;;4.92;100.00;102592.66;4907178;28;20108;-76
2022/03/28 04:31:16;;;;;;;9.73;4.22;;;;;;;4.96;100.00;102591.41;4904394;28;20026;-76
2022/03/28 04:33:41;;;;;;;10.40;4.68;;;;;;;4.96;100.00;102582.53;4901327;28;20066;-76
2022/03/28 04:36:07;;;;;;;10.90;5.38;;;;;;;4.90;100.00;102583.91;4942701;28;20054;-76
2022/03/28 04:38:32;;;;;;;12.45;5.07;;;;;;;4.90;100.00;102580.41;4944048;28;20080;-77
2022/03/28 04:40:58;;;;;;;13.45;6.07;;;;;;;4.87;100.00;102581.50;4925447;28;23855;-75
2022/03/28 04:43:23;;;;;;;15.57;7.20;;;;;;;4.85;100.00;102583.47;4943161;28;20045;-76
2022/03/28 04:45:49;;;;;;;15.27;7.22;;;;;;;4.79;100.00;102578.66;4927483;28;20080;-75
2022/03/28 04:48:14;;;;;;;16.33;7.72;;;;;;;4.83;100.00;102580.06;4944192;28;20034;-76
2022/03/28 04:50:40;;;;;;;19.05;8.93;;;;;;;4.92;100.00;102579.28;4904811;28;23445;-76
2022/03/28 04:53:05;;;;;;;23.67;9.98;;;;;;;4.90;100.00;102581.25;4920765;28;21312;-76
2022/03/28 04:55:31;;;;;;;25.55;10.60;;;;;;;4.86;100.00;102568.28;4922135;28;21377;-76
2022/03/28 04:57:57;;;;;;;33.15;13.35;;;;;;;4.85;100.00;102578.13;4912570;28;20189;-76
2022/03/28 05:00:23;;;;;;;33.97;12.07;;;;;;;4.83;100.00;102564.06;4922136;28;20030;-76
2022/03/28 05:02:48;;;;;;;39.45;14.45;;;;;;;4.75;100.00;102558.53;4907766;28;20539;-76
2022/03/28 05:05:14;;;;;;;39.92;13.80;;;;;;;4.80;100.00;102564.31;4922683;28;20038;-76
2022/03/28 05:07:39;;;;;;;34.55;13.35;;;;;;;4.89;100.00;102562.69;4909151;28;20057;-77
2022/03/28 05:10:07;;;;;;;36.90;13.75;;;;;;;4.87;100.00;102556.63;4926137;28;20070;-76
2022/03/28 05:12:33;;;;;;;42.22;16.27;;;;;;;4.85;100.00;102551.44;4914027;28;20046;-76
2022/03/28 05:14:58;;;;;;;51.35;19.23;;;;;;;4.76;100.00;102542.38;4921843;28;20070;-76
2022/03/28 05:17:26;;;;;;;56.55;20.10;;;;;;;4.80;100.00;102540.28;4930510;28;20422;-76
2022/03/28 05:19:52;;;;;;;61.83;20.88;;;;;;;4.79;100.00;102541.28;4892513;28;20046;-76
2022/03/28 05:22:18;;;;;;;109.10;39.75;;;;;;;4.89;100.00;102539.50;4909800;28;20168;-76
2022/03/28 05:24:43;;;;;;;106.05;42.65;;;;;;;4.93;100.00;102542.75;4910589;28;20058;-76
2022/03/28 05:27:12;;;;;;;102.53;41.83;;;;;;;4.82;100.00;102535.69;4925897;28;20500;-76
2022/03/28 05:29:37;;;;;;;104.90;42.40;;;;;;;4.89;100.00;102541.31;4891056;28;20699;-76
2022/03/28 05:32:04;;;;;;;97.05;38.50;;;;;;;4.96;100.00;102532.63;4921768;28;20113;-76
2022/03/28 05:34:30;;;;;;;92.60;38.25;;;;;;;4.94;100.00;102534.59;4920764;28;20201;-76
2022/03/28 05:37:05;;;;;;;94.68;40.03;;;;;;;4.96;100.00;102537.16;4922403;28;20093;-76
2022/03/28 05:39:32;;;;;;;86.15;37.92;;;;;;;4.97;100.00;102528.13;4901367;28;23606;-76
2022/03/28 05:41:58;;;;;;;92.40;39.03;;;;;;;4.95;100.00;102530.97;4904908;28;20050;-75
2022/03/28 05:44:24;;;;;;;93.05;39.13;;;;;;;5.06;100.00;102527.34;4901955;28;20088;-76
2022/03/28 05:46:50;;;;;;;64.25;30.77;;;;;;;5.08;100.00;102524.53;4906027;28;22831;-75
2022/03/28 05:49:16;;;;;;;61.90;29.75;;;;;;;5.02;100.00;102520.59;4907125;28;20031;-76
2022/03/28 05:51:41;;;;;;;63.55;29.85;;;;;;;5.07;100.00;102525.50;4891476;28;20182;-76
2022/03/28 05:54:07;;;;;;;53.85;27.20;;;;;;;5.17;100.00;102521.03;4909154;28;20061;-76
2022/03/28 05:56:32;;;;;;;57.58;29.52;;;;;;;5.17;100.00;102527.22;4916711;28;20500;-76
2022/03/28 05:58:58;;;;;;;55.28;28.08;;;;;;;5.13;100.00;102533.00;4911297;28;20031;-76
2022/03/28 06:01:23;;;;;;;50.97;29.48;;;;;;;5.14;100.00;102529.34;4925203;28;20110;-75
2022/03/28 06:03:50;;;;;;;43.97;26.48;;;;;;;5.27;100.00;102529.94;4909935;28;20046;-75
2022/03/28 06:06:15;;;;;;;45.20;25.02;;;;;;;5.26;100.00;102528.22;4926984;28;20062;-75
2022/03/28 06:08:41;;;;;;;36.03;22.65;;;;;;;5.30;100.00;102528.78;4883968;28;20088;-75
2022/03/28 06:11:06;;;;;;;33.40;21.02;;;;;;;5.34;100.00;102525.72;4938667;28;20125;-75
2022/03/28 06:13:32;;;;;;;30.05;18.48;;;;;;;5.39;100.00;102536.00;4907974;28;20069;-75
2022/03/28 06:16:02;;;;;;;29.95;18.88;;;;;;;5.42;100.00;102525.88;4931330;28;20042;-74
2022/03/28 06:18:28;;;;;;;23.92;17.05;;;;;;;5.33;100.00;102516.00;4918614;28;20586;-74
2022/03/28 06:20:53;;;;;;;22.27;14.98;;;;;;;5.50;100.00;102512.66;4923470;28;20026;-74
2022/03/28 06:23:21;;;;;;;20.02;14.98;;;;;;;5.51;100.00;102510.84;4925708;28;20372;-75
2022/03/28 06:25:47;;;;;;;17.98;14.00;;;;;;;5.55;100.00;102514.94;4912593;28;20545;-74
2022/03/28 06:28:15;;;;;;;17.10;13.80;;;;;;;5.57;100.00;102515.63;4931052;28;20081;-74
2022/03/28 06:30:41;;;;;;;18.33;13.80;;;;;;;5.55;100.00;102516.78;4911185;28;20050;-74
2022/03/28 06:33:06;;;;;;;21.35;13.30;;;;;;;5.59;100.00;102529.72;4911853;28;20053;-74
2022/03/28 06:35:31;;;;;;;18.38;12.50;;;;;;;5.73;100.00;102525.78;4910382;28;20701;-75
2022/03/28 06:37:58;;;;;;;15.15;12.70;;;;;;;5.68;100.00;102525.34;4908595;28;20149;-74
2022/03/28 06:40:24;;;;;;;14.32;11.52;;;;;;;5.71;100.00;102512.53;4920761;28;20104;-74
2022/03/28 06:42:50;;;;;;;13.43;11.20;;;;;;;5.71;100.00;102522.41;4917810;28;20071;-74
2022/03/28 06:45:18;;;;;;;18.77;13.13;;;;;;;5.74;100.00;102516.78;4907061;28;20117;-74
2022/03/28 06:47:44;;;;;;;16.33;12.75;;;;;;;5.61;100.00;102517.03;4908418;28;20042;-74
2022/03/28 06:50:10;;;;;;;15.02;12.50;;;;;;;5.72;100.00;102518.72;4916954;28;20054;-75
2022/03/28 06:52:36;;;;;;;19.63;13.95;;;;;;;5.83;100.00;102518.63;4904537;28;20501;-75
2022/03/28 06:55:03;;;;;;;17.20;13.55;;;;;;;5.77;100.00;102512.97;4922518;28;20035;-75
2022/03/28 06:57:28;;;;;;;18.65;14.98;;;;;;;5.81;100.00;102512.56;4910975;28;20062;-75
2022/03/28 06:59:53;;;;;;;24.95;15.13;;;;;;;5.87;100.00;102516.50;4920205;28;20042;-75
2022/03/28 07:02:19;;;;;;;21.80;14.00;;;;;;;5.80;100.00;102508.19;4921501;28;20065;-75
2022/03/28 07:04:45;;;;;;;22.08;14.02;;;;;;;5.89;100.00;102504.66;4915734;28;20046;-75
2022/03/28 07:07:10;;;;;;;26.08;15.82;;;;;;;5.91;100.00;102496.50;4920228;28;20085;-75
2022/03/28 07:09:36;;;;;;;25.58;16.48;;;;;;;5.91;100.00;102494.66;4909139;28;20074;-74
2022/03/28 07:12:03;;;;;;;25.23;16.15;;;;;;;5.96;100.00;102489.75;4909910;28;20030;-74
2022/03/28 07:14:29;;;;;;;24.85;17.20;;;;;;;5.97;100.00;102485.28;4913738;28;20096;-74
2022/03/28 07:16:55;;;;;;;36.95;21.75;;;;;;;6.10;100.00;102495.66;4924101;28;20093;-73
2022/03/28 07:19:20;;;;;;;37.08;21.23;;;;;;;6.03;100.00;102483.84;4908206;28;20136;-74
2022/03/28 07:21:46;;;;;;;39.38;24.08;;;;;;;6.02;100.00;102482.16;4923100;28;20030;-74
2022/03/28 07:24:11;;;;;;;38.72;23.73;;;;;;;6.03;100.00;102483.84;4925965;28;20058;-74
2022/03/28 07:26:36;;;;;;;41.97;23.30;;;;;;;6.21;100.00;102492.81;4910373;28;20058;-74
2022/03/28 07:29:04;;;;;;;47.92;23.52;;;;;;;6.20;100.00;102489.31;4920242;28;20035;-74
2022/03/28 07:31:30;;;;;;;38.28;21.38;;;;;;;6.17;100.00;102480.72;4915992;28;20133;-74
2022/03/28 07:34:29;;;;;;;40.38;21.63;;;;;;;6.14;100.00;102481.00;4929094;28;20043;-74
2022/03/28 07:36:41;;;;;;;38.35;20.05;;;;;;;6.27;100.00;102475.34;4908128;28;20058;-74
2022/03/28 07:39:07;;;;;;;24.83;15.60;;;;;;;6.12;100.00;102473.13;4923883;28;20085;-74
2022/03/28 07:41:32;;;;;;;30.75;16.25;;;;;;;6.11;100.00;102465.28;4910585;28;20698;-74
2022/03/28 07:43:58;;;;;;;27.23;15.80;;;;;;;6.19;100.00;102468.06;4925251;28;20027;-75
2022/03/28 07:46:23;;;;;;;26.77;15.32;;;;;;;6.21;100.00;102466.06;4924526;28;20069;-73
2022/03/28 07:48:49;;;;;;;23.50;14.60;;;;;;;6.30;100.00;102459.84;4890545;28;20073;-73
2022/03/28 07:51:14;;;;;;;25.85;14.68;;;;;;;6.31;100.00;102466.88;4913628;28;20071;-74
2022/03/28 07:53:39;;;;;;;29.60;14.82;;;;;;;6.40;100.00;102466.03;4909380;28;20061;-74
2022/03/28 07:56:05;;;;;;;25.10;15.45;;;;;;;6.40;100.00;102466.03;4931905;28;20121;-74
2022/03/28 07:58:30;;;;;;;20.20;13.30;;;;;;;6.45;100.00;102468.25;4937160;28;20042;-75
2022/03/28 08:00:56;;;;;;;21.73;13.00;;;;;;;6.53;100.00;102459.50;4932405;28;20498;-74
2022/03/28 08:03:21;;;;;;;21.50;14.15;;;;;;;6.58;100.00;102457.22;4935289;28;20707;-74
2022/03/28 08:05:47;;;;;;;18.67;14.02;;;;;;;6.62;100.00;102464.81;4917814;28;20046;-75
2022/03/28 08:08:12;;;;;;;22.40;14.52;;;;;;;6.72;100.00;102455.91;4925941;28;20121;-75
2022/03/28 08:10:38;;;;;;;20.00;14.85;;;;;;;6.81;100.00;102457.69;4907891;28;20082;-74
2022/03/28 08:13:03;;;;;;;25.08;16.40;;;;;;;6.84;100.00;102452.88;4925766;28;20038;-75
2022/03/28 08:15:30;;;;;;;24.65;17.17;;;;;;;6.91;100.00;102440.59;4908521;28;20047;-75
2022/03/28 08:17:59;;;;;;;27.05;16.45;;;;;;;6.90;100.00;102441.56;4922505;28;20045;-75
2022/03/28 08:20:24;;;;;;;24.60;17.52;;;;;;;7.03;100.00;102435.03;4908408;28;20288;-74
2022/03/28 08:22:51;;;;;;;26.73;18.60;;;;;;;7.15;100.00;102433.78;4926914;28;22361;-74
2022/03/28 08:25:17;;;;;;;23.45;16.10;;;;;;;7.15;100.00;102433.78;4912002;28;21163;-75
2022/03/28 08:27:43;;;;;;;26.98;18.23;;;;;;;7.22;100.00;102434.03;4912318;28;20480;-74
2022/03/28 08:30:12;;;;;;;22.08;16.08;;;;;;;7.30;100.00;102432.28;4928482;28;20570;-74
2022/03/28 08:32:39;;;;;;;24.60;15.40;;;;;;;7.27;100.00;102429.06;4905425;28;20057;-74
2022/03/28 08:35:05;;;;;;;20.60;15.10;;;;;;;7.31;100.00;102438.50;4937711;28;20031;-74
2022/03/28 08:37:31;;;;;;;22.17;15.20;;;;;;;7.27;100.00;102443.31;4908523;28;20050;-74
2022/03/28 08:39:57;;;;;;;19.60;14.30;;;;;;;7.38;100.00;102440.41;4912944;28;20471;-74
2022/03/28 08:42:24;;;;;;;17.85;14.45;;;;;;;7.41;100.00;102452.66;4896037;28;20160;-75
2022/03/28 08:44:49;;;;;;;19.17;13.60;;;;;;;7.52;100.00;102455.13;4923121;28;20045;-75
2022/03/28 08:47:20;;;;;;;16.75;13.40;;;;;;;7.58;100.00;102462.56;4928758;28;20510;-74
2022/03/28 08:49:49;;;;;;;17.58;13.57;;;;;;;7.60;100.00;102463.22;4921466;28;20055;-74
2022/03/28 08:52:18;;;;;;;21.10;15.13;;;;;;;7.64;100.00;102466.44;4927024;28;20037;-74
2022/03/28 08:54:44;;;;;;;22.58;15.80;;;;;;;7.58;100.00;102450.97;4888463;28;20533;-74
2022/03/28 08:57:12;;;;;;;24.88;15.77;;;;;;;7.63;100.00;102464.78;4935803;28;20039;-74
2022/03/28 08:59:38;;;;;;;25.90;14.82;;;;;;;7.80;100.00;102445.13;4893056;28;21018;-74
2022/03/28 09:02:03;;;;;;;17.52;14.55;;;;;;;7.86;100.00;102446.34;4924095;28;20057;-74
2022/03/28 09:04:29;;;;;;;22.25;14.70;;;;;;;7.77;100.00;102439.25;4908770;28;20050;-74
2022/03/28 09:06:57;;;;;;;19.98;14.82;;;;;;;7.75;100.00;102430.50;4924253;28;20481;-73
2022/03/28 09:09:27;;;;;;;19.98;14.05;;;;;;;7.82;100.00;102421.66;4935046;28;20053;-74
2022/03/28 09:11:58;;;;;;;23.70;14.38;;;;;;;7.85;100.00;102426.72;4908142;28;20069;-74
2022/03/28 09:14:25;;;;;;;19.83;13.38;;;;;;;7.96;100.00;102430.16;4935970;28;20026;-73
2022/03/28 09:17:18;;;;;;;17.05;13.50;;;;;;;7.92;100.00;102431.47;4907854;28;20058;-72
2022/03/28 09:20:03;;;;;;;22.90;15.20;;;;;;;7.86;100.00;102431.13;4917681;28;20050;-72
2022/03/28 09:22:30;;;;;;;19.08;13.98;;;;;;;8.02;100.00;102432.22;4909040;28;20306;-72
2022/03/28 09:25:01;;;;;;;23.02;15.02;;;;;;;8.30;100.00;102436.41;4923412;28;20100;-72
2022/03/28 09:27:31;;;;;;;17.52;12.82;;;;;;;8.41;100.00;102429.13;4909383;28;20061;-72
2022/03/28 09:30:02;;;;;;;22.55;14.30;;;;;;;8.33;100.00;102425.38;4931205;28;20034;-72
2022/03/28 09:32:30;;;;;;;22.30;14.60;;;;;;;8.49;100.00;102426.47;4914010;28;21353;-72
2022/03/28 09:35:22;;;;;;;19.02;12.80;;;;;;;8.51;100.00;102411.06;4942974;28;20061;-72
2022/03/28 09:37:50;;;;;;;18.05;13.93;;;;;;;8.53;100.00;102414.41;4907605;28;20050;-72
2022/03/28 09:40:23;;;;;;;21.30;14.77;;;;;;;8.77;100.00;102411.81;4928837;28;20593;-72
2022/03/28 09:42:50;;;;;;;23.48;13.40;;;;;;;8.78;100.00;102418.91;4926204;28;20030;-72
2022/03/28 09:45:52;;;;;;;19.17;13.75;;;;;;;8.94;100.00;102406.50;4898209;28;20105;-72
2022/03/28 09:48:22;;;;;;;20.85;15.00;;;;;;;9.04;100.00;102404.50;4907557;28;20414;-71
2022/03/28 09:50:55;;;;;;;19.88;14.18;;;;;;;9.16;100.00;102408.59;4897012;28;20046;-71
2022/03/28 09:53:25;;;;;;;20.95;13.73;;;;;;;9.18;100.00;102398.50;4923668;28;20065;-71
2022/03/28 09:56:00;;;;;;;18.85;13.45;;;;;;;9.35;100.00;102403.91;4909940;28;20078;-72
2022/03/28 09:58:48;;;;;;;19.67;13.60;;;;;;;9.55;100.00;102394.50;4923108;28;20149;-72
2022/03/28 10:01:25;;;;;;;18.77;13.77;;;;;;;9.58;100.00;102391.44;4908581;28;20051;-72
2022/03/28 10:03:56;;;;;;;20.48;14.00;;;;;;;9.72;100.00;102388.13;4925135;28;20822;-72
2022/03/28 10:06:22;;;;;;;18.40;14.00;;;;;;;9.78;100.00;102384.72;4909498;28;20160;-73
2022/03/28 10:08:48;;;;;;;20.17;15.05;;;;;;;9.68;100.00;102389.44;4922375;28;20079;-73
2022/03/28 10:11:14;;;;;;;19.77;13.90;;;;;;;9.76;100.00;102381.38;4907144;28;20141;-72
2022/03/28 10:13:40;;;;;;;21.35;14.52;;;;;;;9.69;100.00;102390.31;4925112;28;20113;-73
2022/03/28 10:16:06;;;;;;;20.15;14.75;;;;;;;9.80;100.00;102377.31;4924301;28;20077;-73
2022/03/28 10:18:38;;;;;;;20.55;13.95;;;;;;;10.12;100.00;102366.66;4913156;28;20042;-72
2022/03/28 10:21:08;;;;;;;20.90;15.35;;;;;;;10.25;100.00;102370.53;4924536;28;20538;-72
2022/03/28 10:23:42;;;;;;;22.02;15.13;;;;;;;10.57;100.00;102363.34;4910993;28;20082;-73
2022/03/28 10:26:09;;;;;;;20.20;14.60;;;;;;;10.70;100.00;102362.75;4927426;28;20035;-73
2022/03/28 10:28:35;;;;;;;20.27;13.98;;;;;;;10.83;100.00;102367.56;4909685;28;20062;-73
2022/03/28 10:31:09;;;;;;;20.63;14.98;;;;;;;10.89;100.00;102354.22;4928837;28;20037;-73
2022/03/28 10:33:34;;;;;;;18.75;14.77;;;;;;;10.92;100.00;102356.56;4926772;28;20160;-72
2022/03/28 10:36:25;;;;;;;20.67;14.90;;;;;;;11.20;100.00;102354.19;4929185;28;20943;-73
2022/03/28 10:38:51;;;;;;;21.42;15.57;;;;;;;11.07;100.00;102353.94;4906779;28;20646;-73
2022/03/28 10:41:19;;;;;;;21.85;15.10;;;;;;;11.45;100.00;102360.22;4913107;28;20248;-73
2022/03/28 10:43:45;;;;;;;16.63;14.07;;;;;;;11.47;100.00;102350.06;4922849;28;20533;-73
2022/03/28 10:46:12;;;;;;;20.95;14.73;;;;;;;11.34;100.00;102349.03;4915052;28;20054;-73
2022/03/28 10:48:44;;;;;;;20.48;15.27;;;;;;;11.12;100.00;102356.91;4939293;28;20034;-73
2022/03/28 10:51:20;;;;;;;23.70;16.50;;;;;;;11.05;100.00;102361.34;4894601;28;20158;-73
2022/03/28 10:53:52;;;;;;;20.95;14.88;;;;;;;11.29;100.00;102362.22;4925886;28;20423;-73
2022/03/28 10:56:31;;;;;;;20.42;14.35;;;;;;;11.43;100.00;102348.75;4911023;28;20058;-73
2022/03/28 10:59:15;;;;;;;18.48;13.75;;;;;;;11.41;100.00;102340.03;4929357;28;20033;-73
2022/03/28 11:01:54;;;;;;;20.00;15.23;;;;;;;11.50;100.00;102338.06;4908427;28;20173;-73
2022/03/28 11:04:23;;;;;;;20.55;15.18;;;;;;;11.73;100.00;102331.81;4931411;28;20034;-73
2022/03/28 11:07:03;;;;;;;24.25;15.80;;;;;;;12.07;100.00;102329.41;4909960;28;20046;-73
2022/03/28 11:09:42;;;;;;;19.45;15.23;;;;;;;12.29;100.00;102334.94;4926884;28;20045;-73